Tiempo atmosférico en la estación meteorológica de Salobreña, Granada (20 m.)



Fecha
DESCASC
Temp. máxima en grados centígrados (hora)
DESCASC
Temp. mínima en grados centígrados (hora)
DESCASC
Temp. media en grados centígrados
DESCASC
Racha de viento máxima en m/sg (hora)
DESCASC
Velocidad máxima media en intervalos de 10 minutos(hora)
DESCASC
Precipitaciones diarias en mm
DESCASC
Precipitaciones de 00:00 a 06:00 en mm
DESCASC
Precipitaciones de 06:00 a 12:00 en mm
DESCASC
Precipitaciones de 12:00 a 18:00 en mm
DESCASC
Precipitaciones de 18:00 a 24:00 en mm
DESCASC
11-08-2020 -- (--) -- (--) -- -- (--) -- (--) 0.2 0 0.2 0 0
10-08-2020 -- (--) -- (--) -- -- (--) -- (--) 2.2 0 0 0 2.2
09-08-2020 -- (--) -- (--) -- -- (--) -- (--) 0 0 0 0 0
08-08-2020 32.1 (12:40) 20 (07:30) 26 5.28 (12:00) 3.33 (12:10) 0 0 0 0 0
07-08-2020 -- (--) -- (--) -- -- (--) -- (--) 0 0 0 0 0
06-08-2020 -- (--) -- (--) -- -- (--) -- (--) 0 0 0 0 0
05-08-2020 -- (--) -- (--) -- -- (--) -- (--) 0 0 0 0 0
04-08-2020 -- (--) -- (--) -- -- (--) -- (--) 0 0 0 0 0
03-08-2020 -- (--) -- (--) -- -- (--) -- (--) 0 0 0 0 0
02-08-2020 34.5 (17:10) 21.2 (00:00) 27.9 9.17 (11:50) 4.72 (15:00) 0 0 0 0 0
01-08-2020 -- (--) -- (--) -- -- (--) -- (--) 0 0 0 0 0
31-07-2020 -- (--) -- (--) -- -- (--) -- (--) 0 0 0 0 0
30-07-2020 -- (--) -- (--) -- -- (--) -- (--) 0 0 0 0 0
29-07-2020 30.5 (16:30) 19.7 (00:00) 25.1 6.11 (12:00) 3.61 (11:50) 0 0 0 0 0
28-07-2020 -- (--) -- (--) -- -- (--) -- (--) 0 0 0 0 0
27-07-2020 -- (--) -- (--) -- -- (--) -- (--) 0 0 0 0 0
26-07-2020 -- (--) -- (--) -- -- (--) -- (--) 0 0 0 0 0
25-07-2020 -- (--) -- (--) -- -- (--) -- (--) 0 0 0 0 0
24-07-2020 -- (--) -- (--) -- -- (--) -- (--) 0 0 0 0 0
23-07-2020 -- (--) -- (--) -- -- (--) -- (--) 0 0 0 0 0
22-07-2020 29.3 (16:20) 21.2 (00:00) 25.3 10 (16:00) 5.28 (15:20) 0 0 0 0 0
21-07-2020 33.2 (15:20) 23 (00:00) 28.1 15.28 (01:20) 6.11 (20:40) 0 0 0 0 0
20-07-2020 30.5 (14:10) 21.4 (00:00) 25.9 6.94 (12:10) 4.72 (14:50) 0 0 0 0 0
19-07-2020 29 (16:30) 22 (00:00) 25.5 5.83 (11:40) 3.61 (15:00) 0 0 0 0 0
18-07-2020 28.9 (17:20) 20.1 (00:00) 24.5 6.39 (14:40) 3.61 (15:20) 0 0 0 0 0
17-07-2020 29.4 (14:10) 19.9 (00:00) 24.6 5.83 (12:30) 3.33 (16:00) 0 0 0 0 0
16-07-2020 30.6 (12:50) 20.2 (00:00) 25.4 6.67 (13:50) 3.61 (17:10) 0 0 0 0 0
15-07-2020 -- (--) -- (--) -- -- (--) -- (--) -- 0 0 0 --

Gráficas

Temp. máximas Temp. mínimas Temp. medias Precipitaciones Rachas de viento máximas Velocidades máximas media en intervalos de 10 minutos

Datos horarios

Fecha y hora oficial Temperatura (ºC) Velocidad del viento (km/h) Dirección del viento Racha (km/h) Dirección de racha Precipitación (mm) Presión (hPa) Tendencia (hPa) Humedad (%)
2020-08-13 23:00:00 20.6 7 Norte 10 Norte 0 -- -- 84
2020-08-13 22:00:00 22.5 6 Norte 13 Oeste 0 -- -- 80
2020-08-13 21:00:00 26.2 7 Oeste 22 Sudoeste 0 -- -- 69
2020-08-13 20:00:00 27.7 10 Sudoeste 26 Sudoeste 0 -- -- 56
2020-08-13 19:00:00 28.2 12 Oeste 24 Oeste 0 -- -- 59
2020-08-13 18:00:00 28.7 12 Sudoeste 27 Sudoeste 0 -- -- 61
2020-08-13 17:00:00 28.2 14 Sudoeste 32 Sudoeste 0 -- -- 64
2020-08-13 16:00:00 28.1 17 Sudoeste 33 Sudoeste 0 -- -- 67
2020-08-13 15:00:00 28.4 18 Sudoeste 32 Sudoeste 0 -- -- 69
2020-08-13 14:00:00 28.9 14 Sudoeste 26 Sudoeste 0 -- -- 69
2020-08-13 13:00:00 28.7 13 Sudoeste 25 Sudoeste 0 -- -- 69
2020-08-13 12:00:00 29.2 12 Sudoeste 22 Sudoeste 0 -- -- 63
2020-08-13 11:00:00 28.4 7 Oeste 12 Noroeste 0 -- -- 60
2020-08-13 10:00:00 26.2 3 Oeste 14 Nordeste 0 -- -- 59
2020-08-13 09:00:00 21.5 9 Nordeste -- -- 0 -- -- 70
2020-08-13 08:00:00 -- -- -- -- -- 0 -- -- --
2020-08-13 07:00:00 -- -- -- -- -- 0 -- -- --
2020-08-13 06:00:00 -- -- -- -- -- 0 -- -- --
2020-08-13 05:00:00 -- -- -- -- -- 0 -- -- --
2020-08-13 04:00:00 -- -- -- -- -- 0 -- -- --
2020-08-13 03:00:00 18.4 7 Norte 9 Norte 0 -- -- 84
2020-08-13 02:00:00 19.1 5 Norte 10 Norte 0 -- -- 87
2020-08-13 01:00:00 19.6 9 Norte 11 Norte 0 -- -- 87
2020-08-13 00:00:00 20.7 5 Norte 9 Norte 0 -- -- 88
2020-08-12 23:00:00 21.6 4 Norte 9 Noroeste 0 -- -- 87
2020-08-12 22:00:00 23.3 4 Noroeste 9 Noroeste 0 -- -- 82
2020-08-12 21:00:00 26.1 8 Oeste 24 Oeste 0 -- -- 73
2020-08-12 20:00:00 27.1 13 Oeste 32 Sudoeste 0 -- -- 66
2020-08-12 19:00:00 27.7 17 Sudoeste 33 Sudoeste 0 -- -- 62
2020-08-12 18:00:00 28.1 16 Sudoeste 35 Sudoeste 0 -- -- 63
2020-08-12 17:00:00 28.1 17 Sudoeste 28 Oeste 0 -- -- 65
2020-08-12 16:00:00 28.8 14 Sudoeste 25 Sur 0 -- -- 63
2020-08-12 15:00:00 28.3 14 Sudoeste 24 Sudoeste 0 -- -- 65
2020-08-12 14:00:00 27.7 16 Sudoeste 26 Sudoeste 0 -- -- 68
2020-08-12 13:00:00 28.1 15 Sudoeste 24 Sudoeste 0 -- -- 70
2020-08-12 12:00:00 28.7 10 Sudoeste 21 Oeste 0 -- -- 71
2020-08-12 11:00:00 27.8 10 Sudoeste 16 Sudoeste 0 -- -- 74
2020-08-12 10:00:00 25.6 8 Oeste 17 Noroeste 0 -- -- 84
2020-08-12 09:00:00 24.6 6 Oeste 12 Oeste 0 -- -- 91
2020-08-12 08:00:00 22.8 0 Calma 11 Oeste 0 -- -- 91
2020-08-12 07:00:00 23.9 7 Oeste 18 Oeste 0 -- -- 88
2020-08-12 06:00:00 24.4 6 Oeste 13 Oeste 0 -- -- 90
2020-08-12 05:00:00 25.1 4 Sudoeste 15 Oeste 0 -- -- 90
2020-08-12 04:00:00 25.1 9 Sudoeste 16 Oeste 0 -- -- 90
2020-08-12 03:00:00 24.1 2 Nordeste 8 Norte 0 -- -- 93
2020-08-12 02:00:00 24.4 3 Este 6 Norte 0 -- -- 93
2020-08-12 01:00:00 24.5 4 Noroeste 7 Norte 0 -- -- 92
2020-08-12 00:00:00 25.4 3 Norte 7 Noroeste 0 -- -- 89
2020-08-11 23:00:00 26.8 3 Este 14 Sudoeste 0 -- -- 86
2020-08-11 22:00:00 27.2 4 Sudoeste 23 Sudoeste 0 -- -- 83
2020-08-11 21:00:00 27.9 9 Oeste 17 Oeste 0 -- -- 79
2020-08-11 20:00:00 28.7 5 Sudoeste 22 Oeste 0 -- -- 76
2020-08-11 19:00:00 29.5 9 Sudoeste 19 Oeste 0 -- -- 74
2020-08-11 18:00:00 30.2 11 Oeste 21 Sudoeste 0 -- -- 71
2020-08-11 17:00:00 30.9 13 Sur 19 Sur 0 -- -- 68
2020-08-11 16:00:00 30.3 7 Sudoeste 21 Sur 0 -- -- 70
2020-08-11 15:00:00 30.3 8 Oeste 25 Oeste 0 -- -- 69
2020-08-11 14:00:00 30.1 14 Sudoeste 29 Sudoeste 0 -- -- 73
2020-08-11 13:00:00 30.7 19 Sur 31 Sur 0 -- -- 67
2020-08-11 12:00:00 30.1 8 Sudeste 28 Sudeste 0 -- -- 72
2020-08-11 11:00:00 29 5 Sudoeste 20 Sur 0 -- -- 76
2020-08-11 10:00:00 27.3 8 Sur -- -- 0 -- -- 81
2020-08-11 09:00:00 -- -- -- -- -- 0 -- -- --
2020-08-11 08:00:00 -- -- -- -- -- 0 -- -- --
2020-08-11 07:00:00 -- -- -- -- -- 0.2 -- -- --
2020-08-11 06:00:00 -- -- -- -- -- 0 -- -- --
2020-08-11 05:00:00 -- -- -- -- -- 0 -- -- --
2020-08-11 04:00:00 -- -- -- -- -- 0 -- -- --
2020-08-11 03:00:00 -- -- -- -- -- 0 -- -- --
2020-08-11 02:00:00 -- -- -- -- -- 0 -- -- --
2020-08-11 01:00:00 -- -- -- -- -- 0 -- -- --
2020-08-11 00:00:00 -- 14 Nordeste 31 Nordeste 0 -- -- --
2020-08-10 23:00:00 24.6 11 Nordeste 23 Nordeste 0 -- -- 88
2020-08-10 22:00:00 25.6 4 Nordeste 14 Sudoeste 0 -- -- 88
2020-08-10 21:00:00 26.4 4 Oeste 31 Sudoeste 2.2 -- -- 82
2020-08-10 20:00:00 27.5 15 Sudoeste 39 Sudoeste 0 -- -- 73
2020-08-10 19:00:00 30.1 15 Sudoeste 30 Sudoeste 0 -- -- 67
2020-08-10 18:00:00 29.6 4 Sur 24 Sudoeste 0 -- -- 63
2020-08-10 17:00:00 30.3 6 Oeste -- -- 0 -- -- 64
2020-08-10 16:00:00 -- 6 Sudeste -- -- 0 -- -- --
2020-08-10 15:00:00 29.3 13 Sudoeste 28 Sudoeste 0 -- -- 65
2020-08-10 14:00:00 29.7 13 Oeste 25 Sudoeste 0 -- -- 68
2020-08-10 13:00:00 30.7 14 Sur 27 Sur 0 -- -- 66
2020-08-10 12:00:00 30.9 4 Este 14 Oeste 0 -- -- 65
2020-08-10 11:00:00 28.7 9 Oeste 22 Oeste 0 -- -- 76
2020-08-10 10:00:00 27.3 3 Norte 9 Este 0 -- -- 74
2020-08-10 09:00:00 24.3 4 Nordeste -- -- 0 -- -- 92
2020-08-10 08:00:00 -- -- -- -- -- 0 -- -- --
2020-08-10 07:00:00 -- -- -- -- -- 0 -- -- --
2020-08-10 06:00:00 -- -- -- -- -- 0 -- -- --
2020-08-10 05:00:00 -- -- -- -- -- 0 -- -- --
2020-08-10 04:00:00 -- -- -- -- -- 0 -- -- --
2020-08-10 03:00:00 22.7 6 Norte 10 Nordeste 0 -- -- 87
2020-08-10 02:00:00 23.5 4 Norte 8 Norte 0 -- -- 86
2020-08-10 01:00:00 23.8 7 Norte 10 Norte 0 -- -- 84
2020-08-10 00:00:00 23.8 3 Norte 8 Norte 0 -- -- 82
2020-08-09 23:00:00 24.3 2 Este 7 Noroeste 0 -- -- 82
2020-08-09 22:00:00 25.9 4 Nordeste 9 Oeste 0 -- -- 77
2020-08-09 21:00:00 28.3 5 Sudoeste 11 Sur 0 -- -- 65
2020-08-09 20:00:00 29.5 6 Sudoeste 15 Sudoeste 0 -- -- 59
2020-08-09 19:00:00 30.8 8 Sudoeste 14 Sudoeste 0 -- -- 53
2020-08-09 18:00:00 31.6 9 Sudoeste 16 Sudoeste 0 -- -- 51
2020-08-09 17:00:00 31.5 9 Sudoeste 19 Oeste 0 -- -- 50
2020-08-09 16:00:00 31.4 9 Sudoeste 16 Sudoeste 0 -- -- 46
2020-08-09 15:00:00 31.3 9 Sudoeste 17 Sudoeste 0 -- -- 48
2020-08-09 14:00:00 30.5 10 Sudoeste 17 Oeste 0 -- -- 56
2020-08-09 13:00:00 30.3 10 Sudoeste 19 Sudoeste 0 -- -- 54
2020-08-09 12:00:00 29.4 13 Sudoeste 20 Sudoeste 0 -- -- 61
2020-08-09 11:00:00 29.4 9 Sudoeste 13 Sudoeste 0 -- -- 60
2020-08-09 10:00:00 27.8 5 Oeste 10 Oeste 0 -- -- 65
2020-08-09 09:00:00 -- -- -- -- -- 0 -- -- --
2020-08-09 08:00:00 -- -- -- -- -- 0 -- -- --
2020-08-09 07:00:00 -- -- -- -- -- 0 -- -- --
2020-08-09 06:00:00 -- -- -- -- -- 0 -- -- --
2020-08-09 05:00:00 -- -- -- -- -- 0 -- -- --
2020-08-09 04:00:00 -- -- -- -- -- 0 -- -- --
2020-08-09 03:00:00 20.9 3 Nordeste 8 Norte 0 -- -- 90
2020-08-09 02:00:00 21.7 7 Norte 9 Norte 0 -- -- 89
2020-08-09 01:00:00 22.7 7 Norte 12 Norte 0 -- -- 87
2020-08-09 00:00:00 23 8 Norte 10 Norte 0 -- -- 86
2020-08-08 23:00:00 24.2 4 Norte 6 Norte 0 -- -- 83
2020-08-08 22:00:00 26.7 2 Sudeste 7 Sur 0 -- -- 73
2020-08-08 21:00:00 27.9 5 Sur 8 Sudoeste 0 -- -- 62
2020-08-08 20:00:00 29 5 Sudoeste 15 Sudoeste 0 -- -- 56
2020-08-08 19:00:00 29.8 8 Sudoeste 17 Sudoeste 0 -- -- 52
2020-08-08 18:00:00 30.5 11 Sur 17 Sudoeste 0 -- -- 46
2020-08-08 17:00:00 30.4 10 Sur 16 Sur 0 -- -- 44
2020-08-08 16:00:00 30.5 8 Sudoeste 18 Sudoeste 0 -- -- 42
2020-08-08 15:00:00 30.5 10 Sudoeste 18 Sudoeste 0 -- -- 37
2020-08-08 14:00:00 30.9 11 Sudoeste 19 Sudoeste 0 -- -- 32
2020-08-08 13:00:00 31.8 10 Sur 18 Sur 0 -- -- 31
2020-08-08 12:00:00 31.5 11 Sur 19 Sur 0 -- -- 26
2020-08-08 11:00:00 30.8 8 Sudoeste 14 Sudoeste 0 -- -- 42
2020-08-08 10:00:00 27.7 5 Nordeste 10 Nordeste 0 -- -- 63
2020-08-08 09:00:00 23.6 7 Nordeste 10 Nordeste 0 -- -- 80
2020-08-08 08:00:00 20.6 7 Norte 11 Nordeste 0 -- -- 86
2020-08-08 07:00:00 20.1 9 Norte 10 Norte 0 -- -- 82
2020-08-08 06:00:00 20.7 8 Nordeste 10 Nordeste 0 -- -- 87
2020-08-08 05:00:00 21.1 5 Norte 12 Nordeste 0 -- -- 88
2020-08-08 04:00:00 21.4 8 Nordeste -- -- 0 -- -- 90
2020-08-08 03:00:00 21.8 8 Nordeste 11 Nordeste 0 -- -- 91
2020-08-08 02:00:00 22.2 6 Norte 10 Norte 0 -- -- 90
2020-08-08 01:00:00 22.7 6 Nordeste 9 Norte 0 -- -- 91
2020-08-08 00:00:00 23.2 4 Noroeste 7 Noroeste 0 -- -- 88
2020-08-07 23:00:00 24.2 3 Norte 6 Nordeste 0 -- -- 85
2020-08-07 22:00:00 26.2 3 Este 9 Sudoeste 0 -- -- 81
2020-08-07 21:00:00 27.7 6 Sudoeste 12 Sur 0 -- -- 73
2020-08-07 20:00:00 29.1 6 Oeste 14 Sudoeste 0 -- -- 66
2020-08-07 19:00:00 29.9 8 Sudoeste 18 Sur 0 -- -- 61
2020-08-07 18:00:00 30.6 11 Sudoeste 17 Sudoeste 0 -- -- 57
2020-08-07 17:00:00 30.3 10 Sur 24 Sur 0 -- -- 62
2020-08-07 16:00:00 30.6 12 Sudoeste 24 Sudoeste 0 -- -- 60
2020-08-07 15:00:00 30.8 12 Sudoeste 19 Sur 0 -- -- 57
2020-08-07 14:00:00 30.5 9 Oeste 20 Oeste 0 -- -- 61
2020-08-07 13:00:00 30.3 9 Sudoeste 19 Sudoeste 0 -- -- 67
2020-08-07 12:00:00 29.9 12 Sur 21 Sudoeste 0 -- -- 63
2020-08-07 11:00:00 29.7 6 Sur 13 Sudoeste 0 -- -- 63
2020-08-07 10:00:00 27.9 0 Calma 4 Sur 0 -- -- 74
2020-08-07 09:00:00 -- -- -- -- -- 0 -- -- --
2020-08-07 08:00:00 -- -- -- -- -- 0 -- -- --
2020-08-07 07:00:00 -- -- -- -- -- 0 -- -- --
2020-08-07 06:00:00 -- -- -- -- -- 0 -- -- --
2020-08-07 05:00:00 -- -- -- -- -- 0 -- -- --
2020-08-07 04:00:00 -- -- -- -- -- 0 -- -- --
2020-08-07 03:00:00 -- -- -- -- -- 0 -- -- --
2020-08-07 02:00:00 -- -- -- -- -- 0 -- -- --
2020-08-07 01:00:00 24.7 3 Nordeste 7 Nordeste 0 -- -- 84
2020-08-07 00:00:00 26.5 5 Sudoeste 17 Oeste 0 -- -- 75
2020-08-06 23:00:00 26.8 10 Oeste 22 Oeste 0 -- -- 76
2020-08-06 22:00:00 27.5 6 Oeste 17 Sur 0 -- -- 71
2020-08-06 21:00:00 28.5 6 Sudoeste 15 Noroeste 0 -- -- 64
2020-08-06 20:00:00 30 8 Sudoeste 19 Sur 0 -- -- 55
2020-08-06 19:00:00 31.5 10 Sur 24 Sur 0 -- -- 50
2020-08-06 18:00:00 32.6 14 Sur 25 Sur 0 -- -- 43
2020-08-06 17:00:00 33.4 14 Sur 28 Sur 0 -- -- 40
2020-08-06 16:00:00 33.3 16 Sur 31 Sur 0 -- -- 49
2020-08-06 15:00:00 33.4 17 Sur 28 Sur 0 -- -- 49
2020-08-06 14:00:00 32.9 18 Sur 29 Sur 0 -- -- 52
2020-08-06 13:00:00 31.6 13 Sur 21 Sur 0 -- -- 54
2020-08-06 12:00:00 30.2 12 Sudoeste 24 Oeste 0 -- -- 60
2020-08-06 11:00:00 29.6 10 Sudoeste 17 Sudoeste 0 -- -- 66
2020-08-06 10:00:00 28.4 0 Calma 10 Nordeste 0 -- -- 67
2020-08-06 09:00:00 -- -- -- -- -- 0 -- -- --
2020-08-06 08:00:00 -- -- -- -- -- 0 -- -- --
2020-08-06 07:00:00 -- -- -- -- -- 0 -- -- --
2020-08-06 06:00:00 -- -- -- -- -- 0 -- -- --
2020-08-06 05:00:00 -- -- -- -- -- 0 -- -- --
2020-08-06 04:00:00 -- -- -- -- -- 0 -- -- --
2020-08-06 03:00:00 22.4 7 Norte 10 Norte 0 -- -- 87
2020-08-06 02:00:00 23 5 Norte 8 Norte 0 -- -- 85
2020-08-06 01:00:00 24.7 5 Norte 7 Norte 0 -- -- 83
2020-08-06 00:00:00 26.4 5 Oeste 16 Oeste 0 -- -- 83
2020-08-05 23:00:00 27 12 Oeste 23 Oeste 0 -- -- 81
2020-08-05 22:00:00 27.3 11 Oeste 21 Oeste 0 -- -- 69
2020-08-05 21:00:00 28.4 6 Oeste 18 Oeste 0 -- -- 60
2020-08-05 20:00:00 30 8 Oeste 21 Sudoeste 0 -- -- 57
2020-08-05 19:00:00 31.6 9 Sudoeste 22 Oeste 0 -- -- 51
2020-08-05 18:00:00 32 10 Sudoeste 19 Sudoeste 0 -- -- 44
2020-08-05 17:00:00 32.4 9 Sur 23 Sur 0 -- -- 44
2020-08-05 16:00:00 32.2 15 Sur 26 Sur 0 -- -- 42
2020-08-05 15:00:00 32.3 19 Sur 31 Sur 0 -- -- 44
2020-08-05 14:00:00 33.6 17 Sur 27 Sur 0 -- -- 30
2020-08-05 13:00:00 31.7 10 Oeste 15 Sudoeste 0 -- -- 51
2020-08-05 12:00:00 30.1 7 Sudoeste 15 Oeste 0 -- -- 62
2020-08-05 11:00:00 29.3 9 Sudoeste 17 Sur 0 -- -- 66
2020-08-05 10:00:00 28.4 4 Sudoeste 8 Sudoeste 0 -- -- 72
2020-08-05 09:00:00 -- -- -- -- -- 0 -- -- --
2020-08-05 08:00:00 -- -- -- -- -- 0 -- -- --
2020-08-05 07:00:00 -- -- -- -- -- 0 -- -- --
2020-08-05 06:00:00 -- -- -- -- -- 0 -- -- --
2020-08-05 05:00:00 -- -- -- -- -- 0 -- -- --
2020-08-05 04:00:00 -- -- -- -- -- 0 -- -- --
2020-08-05 03:00:00 24.5 0 Calma 6 Nordeste 0 -- -- 92
2020-08-05 02:00:00 24.8 4 Nordeste 6 Nordeste 0 -- -- 92
2020-08-05 01:00:00 24.4 3 Nordeste 7 Norte 0 -- -- 93
2020-08-05 00:00:00 24.8 0 Calma 4 Noroeste 0 -- -- 90
2020-08-04 23:00:00 25.5 0 Calma 10 Noroeste 0 -- -- 89
2020-08-04 22:00:00 26.3 6 Noroeste 12 Oeste 0 -- -- 88
2020-08-04 21:00:00 27.5 5 Sudoeste 14 Sur 0 -- -- 82
2020-08-04 20:00:00 28.3 7 Sur 17 Sudoeste 0 -- -- 80
2020-08-04 19:00:00 29.2 8 Sudoeste 18 Sudoeste 0 -- -- 75
2020-08-04 18:00:00 29.2 8 Sudoeste 17 Sur 0 -- -- 75
2020-08-04 17:00:00 29.1 9 Sudoeste 23 Sur 0 -- -- 78
2020-08-04 16:00:00 30.2 10 Sur 21 Sudoeste 0 -- -- 73
2020-08-04 15:00:00 29.4 12 Sudoeste 26 Sur 0 -- -- 79
2020-08-04 14:00:00 28.5 10 Sudoeste 24 Sudoeste 0 -- -- 81
2020-08-04 13:00:00 28.8 16 Sudoeste 27 Sur 0 -- -- 80
2020-08-04 12:00:00 29.7 17 Sur 34 Sur 0 -- -- 76
2020-08-04 11:00:00 29.7 16 Sur 28 Sudeste 0 -- -- 71
2020-08-04 10:00:00 28.7 9 Sur 18 Sudeste 0 -- -- 74
2020-08-04 09:00:00 -- -- -- -- -- 0 -- -- --
2020-08-04 08:00:00 -- -- -- -- -- 0 -- -- --
2020-08-04 07:00:00 -- -- -- -- -- 0 -- -- --
2020-08-04 06:00:00 -- -- -- -- -- 0 -- -- --
2020-08-04 05:00:00 -- -- -- -- -- 0 -- -- --
2020-08-04 04:00:00 -- -- -- -- -- 0 -- -- --
2020-08-04 03:00:00 23.5 4 Nordeste 8 Sur 0 -- -- 88
2020-08-04 02:00:00 24 3 Sur 8 Norte 0 -- -- 89
2020-08-04 01:00:00 23.5 4 Norte 9 Nordeste 0 -- -- 89
2020-08-04 00:00:00 23.7 3 Norte 8 Nordeste 0 -- -- 86
2020-08-03 23:00:00 24.3 7 Nordeste 9 Nordeste 0 -- -- 84
2020-08-03 22:00:00 25.3 4 Norte 5 Norte 0 -- -- 79
2020-08-03 21:00:00 26.8 6 Sur 11 Sudeste 0 -- -- 71
2020-08-03 20:00:00 28.3 4 Sur 12 Sur 0 -- -- 65
2020-08-03 19:00:00 30 8 Sudoeste 12 Sur 0 -- -- 62
2020-08-03 18:00:00 30.4 6 Sur 14 Sudoeste 0 -- -- 60
2020-08-03 17:00:00 30.1 6 Sudoeste 16 Sur 0 -- -- 61
2020-08-03 16:00:00 29.9 9 Sudoeste 18 Sudoeste 0 -- -- 62
2020-08-03 15:00:00 29.4 11 Sudoeste 20 Sudoeste 0 -- -- 64
2020-08-03 14:00:00 29.6 12 Sudoeste 19 Sudoeste 0 -- -- 64
2020-08-03 13:00:00 29.7 8 Sudoeste 19 Sur 0 -- -- 68
2020-08-03 12:00:00 29.8 12 Sudoeste 23 Sur 0 -- -- 64
2020-08-03 11:00:00 29.1 10 Sudeste 19 Sudeste 0 -- -- 70
2020-08-03 10:00:00 27.8 6 Sur 11 Sur 0 -- -- 75
2020-08-03 09:00:00 -- -- -- -- -- 0 -- -- --
2020-08-03 08:00:00 -- -- -- -- -- 0 -- -- --
2020-08-03 07:00:00 -- -- -- -- -- 0 -- -- --
2020-08-03 06:00:00 -- -- -- -- -- 0 -- -- --
2020-08-03 05:00:00 -- -- -- -- -- 0 -- -- --
2020-08-03 04:00:00 -- -- -- -- -- 0 -- -- --
2020-08-03 03:00:00 21.6 5 Norte 9 Norte 0 -- -- 88
2020-08-03 02:00:00 22.7 7 Norte 10 Nordeste 0 -- -- 84
2020-08-03 01:00:00 23.3 6 Norte 8 Nordeste 0 -- -- 87
2020-08-03 00:00:00 23.9 0 Calma 6 Norte 0 -- -- 84
2020-08-02 23:00:00 25.3 5 Norte 7 Norte 0 -- -- 81
2020-08-02 22:00:00 27.3 3 Norte 5 Nordeste 0 -- -- 79
2020-08-02 21:00:00 30.1 0 Calma 10 Sur 0 -- -- 68
2020-08-02 20:00:00 31.6 8 Sudoeste 12 Sudoeste 0 -- -- 59
2020-08-02 19:00:00 33.4 7 Sudoeste 15 Sudoeste 0 -- -- 51
2020-08-02 18:00:00 33.8 12 Sur 19 Sur 0 -- -- 52
2020-08-02 17:00:00 34.1 8 Sudoeste 18 Sudoeste 0 -- -- 49
2020-08-02 16:00:00 33.3 9 Sudoeste 20 Sur 0 -- -- 53
2020-08-02 15:00:00 33.2 17 Sur 27 Sudeste 0 -- -- 58
2020-08-02 14:00:00 33.4 5 Sur 17 Sudoeste 0 -- -- 58
2020-08-02 13:00:00 32.6 11 Sudoeste 19 Oeste 0 -- -- 60
2020-08-02 12:00:00 31.7 9 Sudoeste 33 Sudoeste 0 -- -- 66
2020-08-02 11:00:00 31.5 5 Noroeste 12 Sudoeste 0 -- -- 67
2020-08-02 10:00:00 29.4 6 Sudoeste 14 Oeste 0 -- -- 74
2020-08-02 09:00:00 26.3 6 Oeste 14 Oeste 0 -- -- 81
2020-08-02 08:00:00 23.8 2 Oeste 13 Oeste 0 -- -- 88
2020-08-02 07:00:00 22.1 9 Norte 14 Nordeste 0 -- -- 76
2020-08-02 06:00:00 21.2 4 Norte 10 Norte 0 -- -- 85
2020-08-02 05:00:00 22.2 4 Oeste 11 Nordeste 0 -- -- 89
2020-08-02 04:00:00 22.9 6 Norte -- -- 0 -- -- 92
2020-08-02 03:00:00 23.5 4 Norte 7 Nordeste 0 -- -- 92
2020-08-02 02:00:00 24.1 5 Nordeste 8 Sudoeste 0 -- -- 91
2020-08-02 01:00:00 24.3 2 Este 6 Norte 0 -- -- 89
2020-08-02 00:00:00 25 4 Norte 7 Norte 0 -- -- 87
2020-08-01 23:00:00 26.7 3 Nordeste 10 Oeste 0 -- -- 83
2020-08-01 22:00:00 28.1 4 Oeste 9 Oeste 0 -- -- 75
2020-08-01 21:00:00 30.4 4 Sur 9 Sur 0 -- -- 60
2020-08-01 20:00:00 31.7 6 Sur 14 Sudoeste 0 -- -- 53
2020-08-01 19:00:00 33.3 8 Sudoeste 19 Sudoeste 0 -- -- 51
2020-08-01 18:00:00 34.5 9 Oeste 15 Oeste 0 -- -- 48
2020-08-01 17:00:00 33.2 7 Sudoeste 22 Oeste 0 -- -- 56
2020-08-01 16:00:00 30.9 11 Oeste 22 Oeste 0 -- -- 69
2020-08-01 15:00:00 30.6 13 Sudoeste 22 Sudoeste 0 -- -- 74
2020-08-01 14:00:00 31.1 8 Sudoeste 19 Sur 0 -- -- 69
2020-08-01 13:00:00 30.7 12 Sudoeste 17 Sudoeste 0 -- -- 69
2020-08-01 12:00:00 31.2 7 Sur 14 Oeste 0 -- -- 72
2020-08-01 11:00:00 30.1 3 Oeste 15 Sudoeste 0 -- -- 78
2020-08-01 10:00:00 28.8 9 Sudoeste 15 Sudoeste 0 -- -- 81
2020-08-01 09:00:00 -- -- -- -- -- 0 -- -- --
2020-08-01 08:00:00 -- -- -- -- -- 0 -- -- --
2020-08-01 07:00:00 -- -- -- -- -- 0 -- -- --
2020-08-01 06:00:00 -- -- -- -- -- 0 -- -- --
2020-08-01 05:00:00 -- -- -- -- -- 0 -- -- --
2020-08-01 04:00:00 -- -- -- -- -- 0 -- -- --
2020-08-01 03:00:00 25.6 5 Nordeste 16 Nordeste 0 -- -- 91
2020-08-01 02:00:00 26.2 8 Noroeste 23 Oeste 0 -- -- 86
2020-08-01 01:00:00 24.6 2 Sur 8 Nordeste 0 -- -- 88
2020-08-01 00:00:00 25.3 3 Nordeste 10 Noroeste 0 -- -- 87
2020-07-31 23:00:00 25.3 5 Norte 9 Nordeste 0 -- -- 86
2020-07-31 22:00:00 26.8 3 Norte 15 Sudoeste 0 -- -- 82
2020-07-31 21:00:00 28.4 6 Sudoeste 17 Oeste 0 -- -- 72
2020-07-31 20:00:00 28.7 5 Oeste 15 Sudoeste 0 -- -- 78
2020-07-31 19:00:00 29.7 7 Oeste 17 Oeste 0 -- -- 71
2020-07-31 18:00:00 30.1 8 Oeste 15 Sudoeste 0 -- -- 73
2020-07-31 17:00:00 31.2 9 Oeste 20 Oeste 0 -- -- 66
2020-07-31 16:00:00 30.9 10 Oeste 18 Sudoeste 0 -- -- 69
2020-07-31 15:00:00 30.1 11 Sudoeste 22 Sudoeste 0 -- -- 73
2020-07-31 14:00:00 30.5 10 Oeste 19 Sudoeste 0 -- -- 73
2020-07-31 13:00:00 30.5 9 Oeste 17 Sur 0 -- -- 72
2020-07-31 12:00:00 30.1 10 Sudoeste 16 Sur 0 -- -- 72
2020-07-31 11:00:00 29.8 4 Sur 10 Sudoeste 0 -- -- 73
2020-07-31 10:00:00 28.4 5 Sudoeste 9 Sudoeste 0 -- -- 79
2020-07-31 09:00:00 25.1 6 Nordeste -- -- 0 -- -- 93
2020-07-31 08:00:00 -- -- -- -- -- 0 -- -- --
2020-07-31 07:00:00 -- -- -- -- -- 0 -- -- --
2020-07-31 06:00:00 -- -- -- -- -- 0 -- -- --
2020-07-31 05:00:00 -- -- -- -- -- 0 -- -- --
2020-07-31 04:00:00 -- -- -- -- -- 0 -- -- --
2020-07-31 03:00:00 25.1 0 Calma 15 Oeste 0 -- -- 90
2020-07-31 02:00:00 24.9 2 Oeste 8 Sudoeste 0 -- -- 91
2020-07-31 01:00:00 26.1 2 Norte 6 Norte 0 -- -- 87
2020-07-31 00:00:00 27.1 0 Calma 6 Sur 0 -- -- 86
2020-07-30 23:00:00 27.4 5 Sur 10 Sudoeste 0 -- -- 85
2020-07-30 22:00:00 27.4 6 Sur 12 Sur 0 -- -- 85
2020-07-30 21:00:00 27.8 4 Sudoeste 14 Oeste 0 -- -- 82
2020-07-30 20:00:00 28.6 8 Sudoeste 17 Sudoeste 0 -- -- 79
2020-07-30 19:00:00 29.6 10 Sudoeste 18 Sudoeste 0 -- -- 75
2020-07-30 18:00:00 29.9 10 Sudoeste 18 Sudoeste 0 -- -- 73
2020-07-30 17:00:00 30 11 Sudoeste 21 Sudoeste 0 -- -- 73
2020-07-30 16:00:00 30.5 10 Sudoeste 19 Sudoeste 0 -- -- 72
2020-07-30 15:00:00 30.1 10 Sudoeste 21 Sudoeste 0 -- -- 74
2020-07-30 14:00:00 30.2 10 Sudoeste 19 Sur 0 -- -- 73
2020-07-30 13:00:00 29.7 13 Sudoeste 20 Sudoeste 0 -- -- 74
2020-07-30 12:00:00 29.2 15 Sudoeste 24 Sudoeste 0 -- -- 75
2020-07-30 11:00:00 28 8 Oeste 15 Oeste 0 -- -- 81
2020-07-30 10:00:00 27.4 7 Sudoeste 13 Sur 0 -- -- 82
2020-07-30 09:00:00 -- -- -- -- -- 0 -- -- --
2020-07-30 08:00:00 -- -- -- -- -- 0 -- -- --
2020-07-30 07:00:00 -- -- -- -- -- 0 -- -- --
2020-07-30 06:00:00 -- -- -- -- -- 0 -- -- --
2020-07-30 05:00:00 -- -- -- -- -- 0 -- -- --
2020-07-30 04:00:00 -- -- -- -- -- 0 -- -- --
2020-07-30 03:00:00 25.2 4 Sudoeste 15 Este 0 -- -- 91
2020-07-30 02:00:00 26.3 7 Norte 25 Oeste 0 -- -- 87
2020-07-30 01:00:00 26.3 13 Oeste 26 Oeste 0 -- -- 90
2020-07-30 00:00:00 26 4 Nordeste 9 Nordeste 0 -- -- 91
2020-07-29 23:00:00 26.4 3 Este 12 Este 0 -- -- 89
2020-07-29 22:00:00 26.8 2 Sur 15 Sur 0 -- -- 90
2020-07-29 21:00:00 27.4 11 Sudoeste 18 Sur 0 -- -- 86
2020-07-29 20:00:00 28.3 12 Sur 18 Sur 0 -- -- 81
2020-07-29 19:00:00 29.7 9 Sudoeste 18 Sur 0 -- -- 75
2020-07-29 18:00:00 29.9 9 Sudoeste 19 Sur 0 -- -- 75
2020-07-29 17:00:00 30.1 9 Sudoeste 20 Sudoeste 0 -- -- 73
2020-07-29 16:00:00 30.1 10 Sudoeste 19 Sudoeste 0 -- -- 71
2020-07-29 15:00:00 30.3 10 Sudoeste 19 Sudoeste 0 -- -- 70
2020-07-29 14:00:00 29.4 11 Sudoeste 21 Sudoeste 0 -- -- 75
2020-07-29 13:00:00 29.3 12 Sudoeste 17 Sudoeste 0 -- -- 75
2020-07-29 12:00:00 29.4 12 Sur 22 Sur 0 -- -- 75
2020-07-29 11:00:00 29 13 Sur 21 Sur 0 -- -- 77
2020-07-29 10:00:00 28.1 9 Sur 12 Sur 0 -- -- 69
2020-07-29 09:00:00 24 8 Nordeste 14 Nordeste 0 -- -- 73
2020-07-29 08:00:00 20.6 8 Nordeste 12 Norte 0 -- -- 85
2020-07-29 07:00:00 19.7 6 Norte 8 Norte 0 -- -- 89
2020-07-29 06:00:00 20 5 Norte 9 Norte 0 -- -- 90
2020-07-29 05:00:00 20.9 4 Noroeste 12 Nordeste 0 -- -- 86
2020-07-29 04:00:00 21.1 6 Nordeste -- -- 0 -- -- 92
2020-07-29 03:00:00 21.6 4 Noroeste 9 Nordeste 0 -- -- 93
2020-07-29 02:00:00 21.7 8 Norte 10 Norte 0 -- -- 93
2020-07-29 01:00:00 22.4 0 Calma 8 Norte 0 -- -- 91
2020-07-29 00:00:00 23.3 3 Norte 6 Nordeste 0 -- -- 91
2020-07-28 23:00:00 24.3 0 Calma 6 Nordeste 0 -- -- 89
2020-07-28 22:00:00 25.6 3 Nordeste 6 Este 0 -- -- 85
2020-07-28 21:00:00 27.4 4 Sudoeste 13 Oeste 0 -- -- 82
2020-07-28 20:00:00 28.6 4 Sudoeste 15 Sudoeste 0 -- -- 76
2020-07-28 19:00:00 28.8 10 Sudoeste 16 Sudoeste 0 -- -- 76
2020-07-28 18:00:00 29 10 Sudoeste 17 Sudoeste 0 -- -- 76
2020-07-28 17:00:00 29.6 9 Sudoeste 18 Sudoeste 0 -- -- 72
2020-07-28 16:00:00 28.6 10 Sudoeste 20 Sudoeste 0 -- -- 76
2020-07-28 15:00:00 28.6 12 Sudoeste 19 Sudoeste 0 -- -- 75
2020-07-28 14:00:00 28.6 13 Sudoeste 22 Sudoeste 0 -- -- 75
2020-07-28 13:00:00 28.5 12 Sudoeste 19 Oeste 0 -- -- 76
2020-07-28 12:00:00 27.4 9 Sudoeste 20 Sudoeste 0 -- -- 80
2020-07-28 11:00:00 27.2 10 Sudoeste 17 Sudoeste 0 -- -- 82
2020-07-28 10:00:00 27 8 Sudoeste 17 Sudoeste 0 -- -- 79
2020-07-28 09:00:00 -- -- -- -- -- 0 -- -- --
2020-07-28 08:00:00 -- -- -- -- -- 0 -- -- --
2020-07-28 07:00:00 -- -- -- -- -- 0 -- -- --
2020-07-28 06:00:00 -- -- -- -- -- 0 -- -- --
2020-07-28 05:00:00 -- -- -- -- -- 0 -- -- --
2020-07-28 04:00:00 -- -- -- -- -- 0 -- -- --
2020-07-28 03:00:00 22.8 6 Nordeste 8 Nordeste 0 -- -- 93
2020-07-28 02:00:00 23.2 3 Nordeste 8 Norte 0 -- -- 92
2020-07-28 01:00:00 23.5 6 Norte 8 Norte 0 -- -- 92
2020-07-28 00:00:00 24.2 7 Norte 9 Norte 0 -- -- 91
2020-07-27 23:00:00 25.5 4 Norte 9 Oeste 0 -- -- 87
2020-07-27 22:00:00 26.6 4 Sudoeste 20 Sudoeste 0 -- -- 84
2020-07-27 21:00:00 27.1 12 Sudoeste 26 Sudoeste 0 -- -- 83
2020-07-27 20:00:00 28.4 10 Oeste 24 Sudoeste 0 -- -- 77
2020-07-27 19:00:00 29.3 10 Sudoeste 18 Sudoeste 0 -- -- 74
2020-07-27 18:00:00 29.9 9 Sudoeste 20 Sudoeste 0 -- -- 69
2020-07-27 17:00:00 30 12 Oeste 22 Sudoeste 0 -- -- 71
2020-07-27 16:00:00 29.7 14 Oeste 25 Sudoeste 0 -- -- 72
2020-07-27 15:00:00 29.5 14 Sudoeste 27 Oeste 0 -- -- 71
2020-07-27 14:00:00 29.4 14 Sudoeste 26 Sudoeste 0 -- -- 71
2020-07-27 13:00:00 29.8 11 Sudoeste 22 Sudoeste 0 -- -- 70
2020-07-27 12:00:00 29.4 11 Sudoeste 19 Sudoeste 0 -- -- 69
2020-07-27 09:00:00 -- -- -- -- -- -- -- -- --
2020-07-27 08:00:00 -- -- -- -- -- -- -- -- --
2020-07-27 07:00:00 -- -- -- -- -- -- -- -- --
2020-07-27 06:00:00 -- -- -- -- -- -- -- -- --
2020-07-27 05:00:00 -- -- -- -- -- -- -- -- --
2020-07-27 04:00:00 -- -- -- -- -- -- -- -- --
2020-07-27 03:00:00 -- -- -- -- -- -- -- -- --
2020-07-27 02:00:00 -- -- -- -- -- -- -- -- --
2020-07-27 01:00:00 -- -- -- -- -- -- -- -- --
2020-07-27 00:00:00 -- -- -- -- -- -- -- -- --
2020-07-26 23:00:00 24.8 5 Norte 7 Noroeste 0 -- -- 90
2020-07-26 22:00:00 26.2 4 Sur 6 Sur 0 -- -- 86
2020-07-26 21:00:00 27 3 Sur 15 Sudoeste 0 -- -- 82
2020-07-26 20:00:00 27.7 10 Sudoeste 20 Sudoeste 0 -- -- 81
2020-07-26 19:00:00 28.7 10 Sudoeste 21 Sudoeste 0 -- -- 77
2020-07-26 18:00:00 29.8 10 Oeste 18 Sudoeste 0 -- -- 72
2020-07-26 17:00:00 30 9 Sudoeste 17 Sudoeste 0 -- -- 71
2020-07-26 16:00:00 29.7 10 Sudoeste 19 Sudoeste 0 -- -- 72
2020-07-26 15:00:00 29.4 9 Sudoeste 18 Sur 0 -- -- 75
2020-07-26 14:00:00 29.7 10 Sudoeste 19 Sudoeste 0 -- -- 68
2020-07-26 13:00:00 29.7 11 Sudoeste 19 Sudoeste 0 -- -- 69
2020-07-26 12:00:00 28.9 10 Sudoeste 16 Sudoeste 0 -- -- 67
2020-07-26 11:00:00 29.2 6 Sudoeste 11 Sudoeste 0 -- -- 64
2020-07-26 10:00:00 27.9 5 Sudoeste 9 Sur 0 -- -- 63
2020-07-26 09:00:00 24.8 4 Sur -- -- 0 -- -- 73
2020-07-26 08:00:00 -- -- -- -- -- 0 -- -- --
2020-07-26 07:00:00 -- -- -- -- -- 0 -- -- --
2020-07-26 06:00:00 -- -- -- -- -- 0 -- -- --
2020-07-26 05:00:00 -- -- -- -- -- 0 -- -- --
2020-07-26 04:00:00 -- -- -- -- -- 0 -- -- --
2020-07-26 03:00:00 22.1 7 Nordeste 11 Norte 0 -- -- 88
2020-07-26 02:00:00 22 6 Nordeste 10 Norte 0 -- -- 88
2020-07-26 01:00:00 22.4 4 Norte 8 Norte 0 -- -- 88
2020-07-26 00:00:00 23.2 5 Norte 7 Norte 0 -- -- 87
2020-07-25 23:00:00 24.5 2 Noroeste 9 Oeste 0 -- -- 83
2020-07-25 22:00:00 26.7 5 Oeste 13 Oeste 0 -- -- 79
2020-07-25 21:00:00 27.8 7 Oeste 14 Oeste 0 -- -- 71
2020-07-25 20:00:00 29.1 9 Oeste 14 Sudoeste 0 -- -- 68
2020-07-25 19:00:00 30.8 8 Sudoeste 15 Sur 0 -- -- 58
2020-07-25 18:00:00 30.9 7 Sudoeste 14 Sudoeste 0 -- -- 58
2020-07-25 17:00:00 30.9 8 Sudoeste 18 Sudoeste 0 -- -- 63
2020-07-25 16:00:00 30.6 10 Sudoeste 19 Sur 0 -- -- 60
2020-07-25 15:00:00 31.4 9 Sur 18 Sudoeste 0 -- -- 54
2020-07-25 14:00:00 29.9 10 Sudoeste 21 Sur 0 -- -- 64
2020-07-25 13:00:00 30.6 9 Oeste 18 Sudoeste 0 -- -- 62
2020-07-25 12:00:00 30.9 11 Sur 18 Sur 0 -- -- 55
2020-07-25 11:00:00 28.7 7 Oeste 14 Oeste 0 -- -- 70
2020-07-25 10:00:00 27.5 6 Oeste 13 Sudoeste 0 -- -- 74
2020-07-25 09:00:00 24 2 Este -- -- 0 -- -- 79
2020-07-25 08:00:00 -- -- -- -- -- 0 -- -- --
2020-07-25 07:00:00 -- -- -- -- -- 0 -- -- --
2020-07-25 06:00:00 -- -- -- -- -- 0 -- -- --
2020-07-25 05:00:00 -- -- -- -- -- 0 -- -- --
2020-07-25 04:00:00 -- -- -- -- -- 0 -- -- --
2020-07-25 03:00:00 22 5 Nordeste 7 Norte 0 -- -- 91
2020-07-25 02:00:00 22.6 5 Norte 8 Norte 0 -- -- 92
2020-07-25 01:00:00 22.8 3 Norte 6 Norte 0 -- -- 91
2020-07-25 00:00:00 23.5 5 Norte 8 Norte 0 -- -- 89
2020-07-24 23:00:00 24.6 3 Nordeste 4 Nordeste 0 -- -- 86
2020-07-24 22:00:00 26.2 0 Calma 6 Sudoeste 0 -- -- 81
2020-07-24 21:00:00 27.9 6 Sudoeste 10 Sudoeste 0 -- -- 75
2020-07-24 20:00:00 29.4 6 Sudoeste 12 Sudoeste 0 -- -- 70
2020-07-24 19:00:00 30.3 7 Sudoeste 14 Sudoeste 0 -- -- 64
2020-07-24 18:00:00 30.9 8 Oeste 15 Sudoeste 0 -- -- 62
2020-07-24 17:00:00 30 11 Sudoeste 18 Sudoeste 0 -- -- 62
2020-07-24 16:00:00 30.4 10 Sudoeste 21 Sudoeste 0 -- -- 62
2020-07-24 15:00:00 29.8 9 Sudoeste 18 Sudoeste 0 -- -- 67
2020-07-24 14:00:00 29.5 10 Sudoeste 17 Sudoeste 0 -- -- 69
2020-07-24 13:00:00 28.7 9 Sudoeste 16 Sudoeste 0 -- -- 72
2020-07-24 12:00:00 28.9 10 Sudoeste 17 Sudoeste 0 -- -- 76
2020-07-24 11:00:00 29.1 4 Sur 10 Sudoeste 0 -- -- 62
2020-07-24 10:00:00 27.3 5 Sudoeste -- -- 0 -- -- 76
2020-07-24 09:00:00 -- -- -- -- -- 0 -- -- --
2020-07-24 08:00:00 -- -- -- -- -- 0 -- -- --
2020-07-24 07:00:00 -- -- -- -- -- 0 -- -- --
2020-07-24 06:00:00 -- -- -- -- -- 0 -- -- --
2020-07-24 05:00:00 -- -- -- -- -- 0 -- -- --
2020-07-24 04:00:00 -- -- -- -- -- 0 -- -- --
2020-07-24 03:00:00 22.1 5 Norte 9 Norte 0 -- -- 92
2020-07-24 02:00:00 22.6 5 Nordeste 6 Norte 0 -- -- 91
2020-07-24 01:00:00 23.1 4 Norte 6 Norte 0 -- -- 90
2020-07-24 00:00:00 23.9 3 Nordeste 5 Norte 0 -- -- 88
2020-07-23 23:00:00 24.7 0 Calma 5 Noroeste 0 -- -- 85
2020-07-23 22:00:00 25.5 0 Calma 4 Norte 0 -- -- 83
2020-07-23 21:00:00 27 2 Norte 12 Sudoeste 0 -- -- 76
2020-07-23 20:00:00 27.7 6 Sudoeste 13 Sudoeste 0 -- -- 72
2020-07-23 19:00:00 29.1 7 Sudoeste 14 Oeste 0 -- -- 69
2020-07-23 18:00:00 29.1 8 Sudoeste 16 Sudoeste 0 -- -- 67
2020-07-23 17:00:00 28.7 9 Sudoeste 19 Sudoeste 0 -- -- 69
2020-07-23 16:00:00 29 9 Sudoeste 17 Sudoeste 0 -- -- 70
2020-07-23 15:00:00 28.2 10 Sudoeste 19 Sudoeste 0 -- -- 72
2020-07-23 14:00:00 28.1 10 Sudoeste 19 Sudoeste 0 -- -- 74
2020-07-23 13:00:00 28 11 Sudoeste 18 Sudoeste 0 -- -- 73
2020-07-23 12:00:00 27.8 10 Sudoeste 17 Sur 0 -- -- 76
2020-07-23 11:00:00 27.5 8 Sudoeste 14 Sur 0 -- -- 78
2020-07-23 10:00:00 26.5 7 Sudoeste 12 Sudoeste 0 -- -- 79
2020-07-23 09:00:00 -- -- -- -- -- 0 -- -- --
2020-07-23 08:00:00 -- -- -- -- -- 0 -- -- --
2020-07-23 07:00:00 -- -- -- -- -- 0 -- -- --
2020-07-23 06:00:00 -- -- -- -- -- 0 -- -- --
2020-07-23 05:00:00 -- -- -- -- -- 0 -- -- --
2020-07-23 04:00:00 -- -- -- -- -- 0 -- -- --
2020-07-23 03:00:00 23.7 2 Noroeste 4 Noroeste 0 -- -- 90
2020-07-23 02:00:00 24.8 4 Sudoeste 5 Sudoeste 0 -- -- 88
2020-07-23 01:00:00 24.4 0 Calma 3 Nordeste 0 -- -- 91
2020-07-23 00:00:00 24.5 2 Sur 5 Sudoeste 0 -- -- 87
2020-07-22 23:00:00 25 3 Sur 11 Sur 0 -- -- 86
2020-07-22 22:00:00 25.8 6 Sur 13 Sur 0 -- -- 82
2020-07-22 21:00:00 26.7 9 Sudoeste 22 Sudoeste 0 -- -- 79
2020-07-22 20:00:00 27.2 11 Sudoeste 28 Sudoeste 0 -- -- 77
2020-07-22 19:00:00 28.1 13 Sudoeste 30 Sur 0 -- -- 73
2020-07-22 18:00:00 28.7 15 Sudoeste 29 Sudoeste 0 -- -- 70
2020-07-22 17:00:00 28.9 15 Sudoeste 30 Sudoeste 0 -- -- 69
2020-07-22 16:00:00 28.7 15 Sudoeste 36 Sudoeste 0 -- -- 69
2020-07-22 15:00:00 28.5 18 Sudoeste 32 Sudoeste 0 -- -- 69
2020-07-22 14:00:00 28.6 14 Sudoeste 24 Sudoeste 0 -- -- 66
2020-07-22 13:00:00 28.4 14 Sudoeste 25 Sudoeste 0 -- -- 70
2020-07-22 12:00:00 28 15 Sudoeste 25 Sudoeste 0 -- -- 68
2020-07-22 11:00:00 27.6 12 Sudoeste 23 Sudoeste 0 -- -- 71
2020-07-22 10:00:00 26.7 10 Sudoeste 21 Sur 0 -- -- 74
2020-07-22 09:00:00 24 3 Sudeste 6 Sur 0 -- -- 89
2020-07-22 08:00:00 21.6 3 Nordeste 8 Norte 0 -- -- 95
2020-07-22 07:00:00 21.3 3 Noroeste 8 Norte 0 -- -- 94
2020-07-22 06:00:00 21.7 4 Norte 8 Norte 0 -- -- 94
2020-07-22 05:00:00 22.2 5 Norte 9 Nordeste 0 -- -- 92
2020-07-22 04:00:00 22.9 3 Norte -- -- 0 -- -- 90
2020-07-22 03:00:00 24.2 5 Noroeste 26 Oeste 0 -- -- 87
2020-07-22 02:00:00 25 9 Oeste 24 Oeste 0 -- -- 87
2020-07-22 01:00:00 25 7 Sudoeste 20 Sudoeste 0 -- -- 88
2020-07-22 00:00:00 24.6 7 Oeste 12 Oeste 0 -- -- 85
2020-07-21 23:00:00 24.7 0 Calma 8 Nordeste 0 -- -- 84
2020-07-21 22:00:00 25.7 3 Sur 24 Oeste 0 -- -- 79
2020-07-21 21:00:00 26.1 16 Sudoeste 35 Oeste 0 -- -- 79
2020-07-21 20:00:00 27.9 13 Oeste 32 Oeste 0 -- -- 73
2020-07-21 19:00:00 29.4 13 Oeste 28 Oeste 0 -- -- 67
2020-07-21 18:00:00 30.2 12 Sudoeste 27 Sur 0 -- -- 63
2020-07-21 17:00:00 30.3 13 Oeste 30 Sudeste 0 -- -- 66
2020-07-21 16:00:00 31.5 17 Sur 28 Sudoeste 0 -- -- 60
2020-07-21 15:00:00 32.4 10 Sudoeste 28 Sudoeste 0 -- -- 56
2020-07-21 14:00:00 31.1 17 Sur 26 Sur 0 -- -- 62
2020-07-21 13:00:00 30.6 14 Sudoeste 34 Oeste 0 -- -- 61
2020-07-21 12:00:00 29 16 Sudoeste 26 Sudoeste 0 -- -- 64
2020-07-21 11:00:00 28.3 8 Sur 29 Sur 0 -- -- 64
2020-07-21 10:00:00 28.7 4 Sudeste 17 Este 0 -- -- 64
2020-07-21 09:00:00 27.5 4 Nordeste 15 Oeste 0 -- -- 75
2020-07-21 08:00:00 26.9 11 Sudoeste 36 Sudoeste 0 -- -- 72
2020-07-21 07:00:00 27.5 18 Oeste 33 Oeste 0 -- -- 69
2020-07-21 06:00:00 26.3 5 Oeste 13 Oeste 0 -- -- 71
2020-07-21 05:00:00 27.2 8 Norte 24 Nordeste 0 -- -- 57
2020-07-21 04:00:00 27.2 20 Nordeste -- -- 0 -- -- 64
2020-07-21 03:00:00 24.9 10 Nordeste 20 Este 0 -- -- 79
2020-07-21 02:00:00 24.9 7 Norte 55 Sudoeste 0 -- -- 84
2020-07-21 01:00:00 24.3 15 Oeste 32 Oeste 0 -- -- 89
2020-07-21 00:00:00 23.7 6 Norte 7 Norte 0 -- -- 87
2020-07-20 23:00:00 25.5 3 Este 13 Sudoeste 0 -- -- 81
2020-07-20 22:00:00 26.5 8 Oeste 15 Oeste 0 -- -- 78
2020-07-20 21:00:00 27.2 8 Sudoeste 15 Sudoeste 0 -- -- 74
2020-07-20 20:00:00 29 9 Oeste 14 Oeste 0 -- -- 68
2020-07-20 19:00:00 29.2 7 Sudoeste 16 Sudoeste 0 -- -- 68
2020-07-20 18:00:00 29.1 9 Sur 20 Sur 0 -- -- 67
2020-07-20 17:00:00 29.2 12 Sudoeste 24 Sudoeste 0 -- -- 67
2020-07-20 16:00:00 29.1 15 Sudoeste 23 Sur 0 -- -- 68
2020-07-20 15:00:00 30.4 15 Sur 24 Sudoeste 0 -- -- 67
2020-07-20 14:00:00 30.1 15 Sur 24 Sur 0 -- -- 62
2020-07-20 13:00:00 28.9 13 Sudoeste 25 Sur 0 -- -- 68
2020-07-20 12:00:00 29.1 16 Sudoeste 24 Sudoeste 0 -- -- 68
2020-07-20 11:00:00 29.9 9 Sur 17 Sur 0 -- -- 57
2020-07-20 10:00:00 27.9 4 Nordeste 9 Este 0 -- -- 73
2020-07-20 09:00:00 24.6 6 Nordeste 10 Nordeste 0 -- -- 91
2020-07-20 08:00:00 22.2 3 Este 7 Sur 0 -- -- 94
2020-07-20 07:00:00 21.7 3 Nordeste 11 Nordeste 0 -- -- 93
2020-07-20 06:00:00 21.5 6 Norte 9 Nordeste 0 -- -- 95
2020-07-20 05:00:00 21.5 3 Nordeste 8 Noroeste 0 -- -- 94
2020-07-20 04:00:00 22 5 Nordeste -- -- 0 -- -- 93
2020-07-20 03:00:00 22.6 6 Norte 9 Nordeste 0 -- -- 94
2020-07-20 02:00:00 22.8 4 Norte 6 Norte 0 -- -- 93
2020-07-20 01:00:00 23.2 5 Nordeste 6 Norte 0 -- -- 92
2020-07-20 00:00:00 23.8 4 Norte 6 Norte 0 -- -- 89
2020-07-19 23:00:00 24.9 3 Sur 9 Oeste 0 -- -- 86
2020-07-19 22:00:00 25.6 4 Oeste 9 Sudoeste 0 -- -- 82
2020-07-19 21:00:00 26.5 6 Sudoeste 12 Sudoeste 0 -- -- 78
2020-07-19 20:00:00 27.2 6 Sudoeste 15 Sudoeste 0 -- -- 74
2020-07-19 19:00:00 28.1 6 Sudoeste 19 Sudoeste 0 -- -- 73
2020-07-19 18:00:00 28.5 10 Sudoeste 20 Oeste 0 -- -- 72
2020-07-19 17:00:00 29 8 Sudoeste 19 Sur 0 -- -- 68
2020-07-19 16:00:00 28.7 9 Sudoeste 21 Sudoeste 0 -- -- 69
2020-07-19 15:00:00 28 13 Sudoeste 20 Sudoeste 0 -- -- 72
2020-07-19 14:00:00 28.2 12 Sudoeste 20 Sudoeste 0 -- -- 72
2020-07-19 13:00:00 28.3 9 Sudoeste 18 Sudoeste 0 -- -- 73
2020-07-19 12:00:00 27.7 11 Sudoeste 21 Sudoeste 0 -- -- 76
2020-07-19 11:00:00 28.7 7 Sudoeste 13 Sudoeste 0 -- -- 71
2020-07-19 10:00:00 27.5 3 Sudoeste 8 Sur 0 -- -- 75
2020-07-19 09:00:00 24.6 3 Sudeste 6 Sudeste 0 -- -- 89
2020-07-19 08:00:00 22.2 3 Nordeste 5 Norte 0 -- -- 93
2020-07-19 07:00:00 22.3 2 Noroeste 6 Norte 0 -- -- 91
2020-07-19 06:00:00 23 3 Noroeste 5 Norte 0 -- -- 89
2020-07-19 05:00:00 24.7 0 Calma 6 Sur 0 -- -- 86
2020-07-19 04:00:00 24.9 5 Sur -- -- 0 -- -- 85
2020-07-19 03:00:00 25 5 Sudoeste 7 Sudoeste 0 -- -- 85
2020-07-19 02:00:00 25.2 4 Sur 6 Sur 0 -- -- 84
2020-07-19 01:00:00 25.2 3 Sur 6 Sur 0 -- -- 84
2020-07-19 00:00:00 25.3 3 Sur 5 Sur 0 -- -- 82
2020-07-18 23:00:00 25.2 3 Sur 6 Sur 0 -- -- 82
2020-07-18 22:00:00 25.4 4 Sur 10 Sudoeste 0 -- -- 80
2020-07-18 21:00:00 26.2 7 Sudoeste 16 Sudoeste 0 -- -- 76
2020-07-18 20:00:00 27 7 Sudoeste 15 Sur 0 -- -- 73
2020-07-18 19:00:00 27.6 9 Sudoeste 21 Sudoeste 0 -- -- 71
2020-07-18 18:00:00 28 11 Sudoeste 20 Sudoeste 0 -- -- 69
2020-07-18 17:00:00 28.6 9 Sudoeste 19 Sudoeste 0 -- -- 68
2020-07-18 16:00:00 28.8 9 Sudoeste 22 Sur 0 -- -- 69
2020-07-18 15:00:00 28.6 12 Sudoeste 23 Sudoeste 0 -- -- 66
2020-07-18 14:00:00 28.6 11 Sudoeste 21 Sur 0 -- -- 63
2020-07-18 13:00:00 28.5 9 Sudoeste 19 Sudoeste 0 -- -- 63
2020-07-18 12:00:00 28.5 8 Sudoeste 17 Sudoeste 0 -- -- 61
2020-07-18 11:00:00 28.3 8 Sur 14 Sur 0 -- -- 60
2020-07-18 10:00:00 27.3 4 Este 8 Nordeste 0 -- -- 62
2020-07-18 09:00:00 23.7 4 Nordeste 8 Nordeste 0 -- -- 85
2020-07-18 08:00:00 20.6 5 Nordeste 11 Nordeste 0 -- -- 90
2020-07-18 07:00:00 20.2 6 Norte 9 Nordeste 0 -- -- 89
2020-07-18 06:00:00 20.8 6 Nordeste 12 Nordeste 0 -- -- 87
2020-07-18 05:00:00 20.4 8 Norte 12 Norte 0 -- -- 88
2020-07-18 04:00:00 20.8 6 Norte -- -- 0 -- -- 88
2020-07-18 03:00:00 21.2 6 Nordeste 9 Norte 0 -- -- 88
2020-07-18 02:00:00 21.7 6 Norte 9 Norte 0 -- -- 90
2020-07-18 01:00:00 21.9 6 Norte 7 Norte 0 -- -- 89
2020-07-18 00:00:00 22.4 5 Norte 5 Norte 0 -- -- 87
2020-07-17 23:00:00 23.3 0 Calma 4 Sur 0 -- -- 85
2020-07-17 22:00:00 24.9 0 Calma 6 Sur 0 -- -- 79
2020-07-17 21:00:00 26.1 5 Sur 12 Sur 0 -- -- 73
2020-07-17 20:00:00 26.7 8 Sudoeste 15 Sudoeste 0 -- -- 72
2020-07-17 19:00:00 27.8 8 Sudoeste 18 Sudoeste 0 -- -- 69
2020-07-17 18:00:00 28.6 9 Sudoeste 18 Sur 0 -- -- 66
2020-07-17 17:00:00 28.3 10 Sur 18 Sudoeste 0 -- -- 66
2020-07-17 16:00:00 29.3 12 Sur 21 Sur 0 -- -- 59
2020-07-17 15:00:00 28.7 10 Sudoeste 19 Sur 0 -- -- 62
2020-07-17 14:00:00 29.3 10 Sur 19 Sur 0 -- -- 56
2020-07-17 13:00:00 28.7 11 Sudoeste 21 Sur 0 -- -- 61
2020-07-17 12:00:00 -- -- -- -- -- -- -- -- --
2020-07-17 11:00:00 -- -- -- -- -- -- -- -- --
2020-07-17 10:00:00 -- -- -- -- -- -- -- -- --
2020-07-17 09:00:00 -- -- -- -- -- -- -- -- --
2020-07-17 08:00:00 -- -- -- -- -- -- -- -- --
2020-07-17 07:00:00 -- -- -- -- -- -- -- -- --
2020-07-17 06:00:00 -- -- -- -- -- -- -- -- --
2020-07-17 05:00:00 -- -- -- -- -- -- -- -- --
2020-07-17 04:00:00 -- -- -- -- -- -- -- -- --
2020-07-17 03:00:00 -- -- -- -- -- -- -- -- --
2020-07-17 02:00:00 -- -- -- -- -- -- -- -- --
2020-07-17 01:00:00 -- -- -- -- -- -- -- -- --
2020-07-17 00:00:00 -- -- -- -- -- -- -- -- --
2020-07-16 23:00:00 -- -- -- -- -- -- -- -- --
2020-07-16 22:00:00 -- -- -- -- -- -- -- -- --
2020-07-16 21:00:00 -- -- -- -- -- -- -- -- --
2020-07-16 20:00:00 -- -- -- -- -- -- -- -- --
2020-07-16 19:00:00 -- -- -- -- -- -- -- -- --
2020-07-16 18:00:00 -- -- -- -- -- -- -- -- --
2020-07-16 17:00:00 -- -- -- -- -- -- -- -- --
2020-07-16 16:00:00 -- -- -- -- -- -- -- -- --
2020-07-16 15:00:00 -- -- -- -- -- -- -- -- --
2020-07-16 14:00:00 -- -- -- -- -- -- -- -- --
2020-07-16 13:00:00 -- -- -- -- -- -- -- -- --
2020-07-16 12:00:00 -- -- -- -- -- -- -- -- --
2020-07-16 11:00:00 -- -- -- -- -- -- -- -- --
2020-07-16 10:00:00 -- -- -- -- -- -- -- -- --
2020-07-16 09:00:00 -- -- -- -- -- -- -- -- --
2020-07-16 08:00:00 -- -- -- -- -- -- -- -- --
2020-07-16 07:00:00 -- -- -- -- -- -- -- -- --
2020-07-16 06:00:00 -- -- -- -- -- -- -- -- --
2020-07-16 05:00:00 -- -- -- -- -- -- -- -- --
2020-07-16 04:00:00 -- -- -- -- -- -- -- -- --
2020-07-16 03:00:00 -- -- -- -- -- -- -- -- --
2020-07-16 02:00:00 -- -- -- -- -- -- -- -- --
2020-07-16 01:00:00 -- -- -- -- -- -- -- -- --
2020-07-16 00:00:00 -- -- -- -- -- -- -- -- --
2020-07-15 23:00:00 -- -- -- -- -- -- -- -- --
2020-07-15 22:00:00 -- -- -- -- -- -- -- -- --
2020-07-15 21:00:00 -- -- -- -- -- -- -- -- --
2020-07-15 20:00:00 -- -- -- -- -- -- -- -- --
2020-07-15 19:00:00 28.9 11 Oeste 21 Sudoeste 0 -- -- 66
2020-07-15 18:00:00 29.8 9 Oeste 22 Sudoeste 0 -- -- 62
2020-07-15 17:00:00 29.4 12 Sudoeste 19 Sudoeste 0 -- -- 61
2020-07-15 16:00:00 29.6 8 Sudoeste 23 Sudoeste 0 -- -- 60
2020-07-15 15:00:00 29.5 9 Oeste 19 Sur 0 -- -- 61
2020-07-15 14:00:00 29.1 9 Oeste 19 Sur 0 -- -- 63
2020-07-15 13:00:00 28.9 9 Sudoeste 21 Sudoeste 0 -- -- 61
2020-07-15 12:00:00 28.3 7 Sudoeste 21 Sudoeste 0 -- -- 64
2020-07-15 11:00:00 28 11 Sur 18 Sudoeste 0 -- -- 63
2020-07-15 10:00:00 27.2 3 Sudoeste 8 Sudeste 0 -- -- 69
2020-07-15 09:00:00 23.8 5 Nordeste 14 Nordeste 0 -- -- 87
2020-07-15 08:00:00 21.1 12 Nordeste 17 Nordeste 0 -- -- 95
2020-07-15 07:00:00 20 5 Norte 9 Norte 0 -- -- 94
2020-07-15 06:00:00 20.2 5 Norte 11 Norte 0 -- -- 94
2020-07-15 05:00:00 -- -- -- -- -- 0 -- -- --
2020-07-15 04:00:00 -- -- -- -- -- 0 -- -- --
2020-07-15 03:00:00 22.4 4 Nordeste 5 Nordeste 0 -- -- 91
2020-07-15 02:00:00 23.5 5 Norte 6 Norte 0 -- -- 90
2020-07-15 01:00:00 24.6 3 Sudoeste 10 Sur 0 -- -- 89
2020-07-15 00:00:00 24.4 3 Sur 8 Sur 0 -- -- 87